sensor_id;sensor_type;location;lat;lon;timestamp;temperature;humidity
77613;DHT22;66777;52.282;5.960;2023-07-29T00:00:41;19.30;85.20
77613;DHT22;66777;52.282;5.960;2023-07-29T00:03:08;19.30;85.30
77613;DHT22;66777;52.282;5.960;2023-07-29T00:05:33;19.20;85.20
77613;DHT22;66777;52.282;5.960;2023-07-29T00:07:59;19.20;85.30
77613;DHT22;66777;52.282;5.960;2023-07-29T00:10:25;19.20;85.10
77613;DHT22;66777;52.282;5.960;2023-07-29T00:12:51;19.20;85.10
77613;DHT22;66777;52.282;5.960;2023-07-29T00:15:16;19.20;85.00
77613;DHT22;66777;52.282;5.960;2023-07-29T00:17:42;19.20;84.90
77613;DHT22;66777;52.282;5.960;2023-07-29T00:20:08;19.20;84.80
77613;DHT22;66777;52.282;5.960;2023-07-29T00:22:34;19.20;84.70
77613;DHT22;66777;52.282;5.960;2023-07-29T00:24:59;19.20;84.70
77613;DHT22;66777;52.282;5.960;2023-07-29T00:27:25;19.20;84.60
77613;DHT22;66777;52.282;5.960;2023-07-29T00:29:51;19.20;84.60
77613;DHT22;66777;52.282;5.960;2023-07-29T00:32:17;19.20;84.50
77613;DHT22;66777;52.282;5.960;2023-07-29T00:34:43;19.20;84.50
77613;DHT22;66777;52.282;5.960;2023-07-29T00:37:08;19.20;84.50
77613;DHT22;66777;52.282;5.960;2023-07-29T00:39:34;19.20;84.50
77613;DHT22;66777;52.282;5.960;2023-07-29T00:42:00;19.10;84.40
77613;DHT22;66777;52.282;5.960;2023-07-29T00:44:26;19.10;84.30
77613;DHT22;66777;52.282;5.960;2023-07-29T00:46:53;19.10;84.40
77613;DHT22;66777;52.282;5.960;2023-07-29T00:49:20;19.10;84.40
77613;DHT22;66777;52.282;5.960;2023-07-29T00:51:47;19.10;84.40
77613;DHT22;66777;52.282;5.960;2023-07-29T00:54:13;19.10;84.40
77613;DHT22;66777;52.282;5.960;2023-07-29T00:56:39;19.10;84.40
77613;DHT22;66777;52.282;5.960;2023-07-29T00:59:06;19.10;84.40
77613;DHT22;66777;52.282;5.960;2023-07-29T01:01:32;19.10;84.50
77613;DHT22;66777;52.282;5.960;2023-07-29T01:03:58;19.10;84.40
77613;DHT22;66777;52.282;5.960;2023-07-29T01:09:27;19.00;84.40
77613;DHT22;66777;52.282;5.960;2023-07-29T01:12:06;19.00;84.40
77613;DHT22;66777;52.282;5.960;2023-07-29T01:14:46;19.00;84.50
77613;DHT22;66777;52.282;5.960;2023-07-29T01:17:22;19.00;84.40
77613;DHT22;66777;52.282;5.960;2023-07-29T01:20:05;19.00;84.40
77613;DHT22;66777;52.282;5.960;2023-07-29T01:22:34;18.90;84.50
77613;DHT22;66777;52.282;5.960;2023-07-29T01:25:00;18.90;84.40
77613;DHT22;66777;52.282;5.960;2023-07-29T01:27:26;18.90;84.40
77613;DHT22;66777;52.282;5.960;2023-07-29T01:29:53;18.90;84.30
77613;DHT22;66777;52.282;5.960;2023-07-29T01:38:09;18.90;84.30
77613;DHT22;66777;52.282;5.960;2023-07-29T01:40:41;18.90;84.30
77613;DHT22;66777;52.282;5.960;2023-07-29T01:43:07;18.80;84.20
77613;DHT22;66777;52.282;5.960;2023-07-29T01:45:34;18.80;84.20
77613;DHT22;66777;52.282;5.960;2023-07-29T01:48:04;18.80;84.10
77613;DHT22;66777;52.282;5.960;2023-07-29T01:50:30;18.80;84.10
77613;DHT22;66777;52.282;5.960;2023-07-29T01:52:57;18.80;84.10
77613;DHT22;66777;52.282;5.960;2023-07-29T01:55:23;18.80;84.00
77613;DHT22;66777;52.282;5.960;2023-07-29T01:57:48;18.80;83.90
77613;DHT22;66777;52.282;5.960;2023-07-29T02:00:15;18.80;83.90
77613;DHT22;66777;52.282;5.960;2023-07-29T02:02:41;18.80;83.80
77613;DHT22;66777;52.282;5.960;2023-07-29T02:05:06;18.80;83.70
77613;DHT22;66777;52.282;5.960;2023-07-29T02:07:32;18.80;83.70
77613;DHT22;66777;52.282;5.960;2023-07-29T02:09:58;18.80;83.70
77613;DHT22;66777;52.282;5.960;2023-07-29T02:12:24;18.80;83.70
77613;DHT22;66777;52.282;5.960;2023-07-29T02:14:49;18.80;83.70
77613;DHT22;66777;52.282;5.960;2023-07-29T02:17:15;18.80;83.60
77613;DHT22;66777;52.282;5.960;2023-07-29T02:19:41;18.70;83.60
77613;DHT22;66777;52.282;5.960;2023-07-29T02:22:06;18.70;83.70
77613;DHT22;66777;52.282;5.960;2023-07-29T02:24:32;18.80;83.70
77613;DHT22;66777;52.282;5.960;2023-07-29T02:26:57;18.70;83.70
77613;DHT22;66777;52.282;5.960;2023-07-29T02:29:23;18.80;83.90
77613;DHT22;66777;52.282;5.960;2023-07-29T02:31:50;18.70;84.00
77613;DHT22;66777;52.282;5.960;2023-07-29T02:34:16;18.70;84.00
77613;DHT22;66777;52.282;5.960;2023-07-29T02:36:41;18.70;83.90
77613;DHT22;66777;52.282;5.960;2023-07-29T02:39:07;18.70;83.90
77613;DHT22;66777;52.282;5.960;2023-07-29T02:41:33;18.70;83.90
77613;DHT22;66777;52.282;5.960;2023-07-29T02:43:58;18.70;83.90
77613;DHT22;66777;52.282;5.960;2023-07-29T02:46:24;18.70;83.90
77613;DHT22;66777;52.282;5.960;2023-07-29T02:48:50;18.70;83.90
77613;DHT22;66777;52.282;5.960;2023-07-29T02:51:16;18.70;83.90
77613;DHT22;66777;52.282;5.960;2023-07-29T02:53:42;18.70;83.90
77613;DHT22;66777;52.282;5.960;2023-07-29T02:56:08;18.70;83.80
77613;DHT22;66777;52.282;5.960;2023-07-29T02:58:36;18.70;83.90
77613;DHT22;66777;52.282;5.960;2023-07-29T03:01:02;18.70;83.90
77613;DHT22;66777;52.282;5.960;2023-07-29T03:03:29;18.70;83.90
77613;DHT22;66777;52.282;5.960;2023-07-29T03:06:06;18.70;83.90
77613;DHT22;66777;52.282;5.960;2023-07-29T03:08:31;18.70;83.80
77613;DHT22;66777;52.282;5.960;2023-07-29T03:10:58;18.70;83.80
77613;DHT22;66777;52.282;5.960;2023-07-29T03:13:24;18.70;83.90
77613;DHT22;66777;52.282;5.960;2023-07-29T03:15:50;18.70;83.90
77613;DHT22;66777;52.282;5.960;2023-07-29T03:18:15;18.70;83.90
77613;DHT22;66777;52.282;5.960;2023-07-29T03:20:41;18.70;84.00
77613;DHT22;66777;52.282;5.960;2023-07-29T03:23:07;18.70;84.00
77613;DHT22;66777;52.282;5.960;2023-07-29T03:25:33;18.70;84.00
77613;DHT22;66777;52.282;5.960;2023-07-29T03:27:58;18.70;84.00
77613;DHT22;66777;52.282;5.960;2023-07-29T03:30:24;18.70;84.10
77613;DHT22;66777;52.282;5.960;2023-07-29T03:32:50;18.70;84.10
77613;DHT22;66777;52.282;5.960;2023-07-29T03:35:16;18.70;84.20
77613;DHT22;66777;52.282;5.960;2023-07-29T03:37:42;18.70;84.20
77613;DHT22;66777;52.282;5.960;2023-07-29T03:40:09;18.60;84.10
77613;DHT22;66777;52.282;5.960;2023-07-29T03:42:35;18.60;84.10
77613;DHT22;66777;52.282;5.960;2023-07-29T03:45:01;18.60;84.10
77613;DHT22;66777;52.282;5.960;2023-07-29T03:47:27;18.60;84.10
77613;DHT22;66777;52.282;5.960;2023-07-29T03:49:53;18.60;84.20
77613;DHT22;66777;52.282;5.960;2023-07-29T03:52:18;18.60;84.20
77613;DHT22;66777;52.282;5.960;2023-07-29T03:54:44;18.60;84.20
77613;DHT22;66777;52.282;5.960;2023-07-29T03:57:09;18.60;84.10
77613;DHT22;66777;52.282;5.960;2023-07-29T03:59:35;18.60;84.00
77613;DHT22;66777;52.282;5.960;2023-07-29T04:02:01;18.50;84.00
77613;DHT22;66777;52.282;5.960;2023-07-29T04:04:26;18.50;83.90
77613;DHT22;66777;52.282;5.960;2023-07-29T04:06:52;18.50;84.00
77613;DHT22;66777;52.282;5.960;2023-07-29T04:09:17;18.50;84.00
77613;DHT22;66777;52.282;5.960;2023-07-29T04:11:43;18.50;84.00
77613;DHT22;66777;52.282;5.960;2023-07-29T04:14:09;18.50;84.20
77613;DHT22;66777;52.282;5.960;2023-07-29T04:16:34;18.50;84.10
77613;DHT22;66777;52.282;5.960;2023-07-29T04:19:00;18.50;84.00
77613;DHT22;66777;52.282;5.960;2023-07-29T04:21:26;18.50;84.00
77613;DHT22;66777;52.282;5.960;2023-07-29T04:23:51;18.60;84.10
77613;DHT22;66777;52.282;5.960;2023-07-29T04:26:17;18.60;84.10
77613;DHT22;66777;52.282;5.960;2023-07-29T04:28:43;18.50;84.10
77613;DHT22;66777;52.282;5.960;2023-07-29T04:31:08;18.50;84.10
77613;DHT22;66777;52.282;5.960;2023-07-29T04:33:34;18.50;84.00
77613;DHT22;66777;52.282;5.960;2023-07-29T04:36:00;18.50;84.00
77613;DHT22;66777;52.282;5.960;2023-07-29T04:38:31;18.50;84.00
77613;DHT22;66777;52.282;5.960;2023-07-29T04:41:00;18.50;84.10
77613;DHT22;66777;52.282;5.960;2023-07-29T04:43:29;18.50;84.10
77613;DHT22;66777;52.282;5.960;2023-07-29T04:45:55;18.50;84.00
77613;DHT22;66777;52.282;5.960;2023-07-29T04:48:21;18.50;84.00
77613;DHT22;66777;52.282;5.960;2023-07-29T04:50:46;18.50;84.00
77613;DHT22;66777;52.282;5.960;2023-07-29T04:53:12;18.50;83.90
77613;DHT22;66777;52.282;5.960;2023-07-29T04:55:37;18.50;83.90
77613;DHT22;66777;52.282;5.960;2023-07-29T04:58:03;18.50;83.80
77613;DHT22;66777;52.282;5.960;2023-07-29T05:00:28;18.50;83.70
77613;DHT22;66777;52.282;5.960;2023-07-29T05:02:55;18.40;83.70
77613;DHT22;66777;52.282;5.960;2023-07-29T05:05:22;18.50;83.70
77613;DHT22;66777;52.282;5.960;2023-07-29T05:07:47;18.40;83.50
77613;DHT22;66777;52.282;5.960;2023-07-29T05:10:13;18.40;83.60
77613;DHT22;66777;52.282;5.960;2023-07-29T05:12:39;18.40;83.50
77613;DHT22;66777;52.282;5.960;2023-07-29T05:15:08;18.40;83.40
77613;DHT22;66777;52.282;5.960;2023-07-29T05:17:33;18.40;83.40
77613;DHT22;66777;52.282;5.960;2023-07-29T05:19:59;18.40;83.30
77613;DHT22;66777;52.282;5.960;2023-07-29T05:22:24;18.40;83.40
77613;DHT22;66777;52.282;5.960;2023-07-29T05:24:50;18.30;83.30
77613;DHT22;66777;52.282;5.960;2023-07-29T05:27:16;18.30;83.20
77613;DHT22;66777;52.282;5.960;2023-07-29T05:29:42;18.40;83.00
77613;DHT22;66777;52.282;5.960;2023-07-29T05:32:07;18.30;83.00
77613;DHT22;66777;52.282;5.960;2023-07-29T05:34:33;18.30;82.90
77613;DHT22;66777;52.282;5.960;2023-07-29T05:36:58;18.40;83.00
77613;DHT22;66777;52.282;5.960;2023-07-29T05:39:24;18.30;82.90
77613;DHT22;66777;52.282;5.960;2023-07-29T05:41:49;18.40;82.90
77613;DHT22;66777;52.282;5.960;2023-07-29T05:44:15;18.40;82.80
77613;DHT22;66777;52.282;5.960;2023-07-29T05:46:41;18.40;82.80
77613;DHT22;66777;52.282;5.960;2023-07-29T05:49:06;18.40;82.70
77613;DHT22;66777;52.282;5.960;2023-07-29T05:51:32;18.40;82.70
77613;DHT22;66777;52.282;5.960;2023-07-29T05:53:58;18.50;82.80
77613;DHT22;66777;52.282;5.960;2023-07-29T05:56:23;18.50;82.60
77613;DHT22;66777;52.282;5.960;2023-07-29T05:58:49;18.50;82.60
77613;DHT22;66777;52.282;5.960;2023-07-29T06:01:15;18.50;82.60
77613;DHT22;66777;52.282;5.960;2023-07-29T06:03:40;18.50;82.50
77613;DHT22;66777;52.282;5.960;2023-07-29T06:06:06;18.50;82.50
77613;DHT22;66777;52.282;5.960;2023-07-29T06:08:32;18.50;82.50
77613;DHT22;66777;52.282;5.960;2023-07-29T06:11:00;18.50;82.50
77613;DHT22;66777;52.282;5.960;2023-07-29T06:13:25;18.50;82.40
77613;DHT22;66777;52.282;5.960;2023-07-29T06:15:51;18.50;82.30
77613;DHT22;66777;52.282;5.960;2023-07-29T06:18:17;18.50;82.30
77613;DHT22;66777;52.282;5.960;2023-07-29T06:20:42;18.50;82.30
77613;DHT22;66777;52.282;5.960;2023-07-29T06:23:08;18.50;82.20
77613;DHT22;66777;52.282;5.960;2023-07-29T06:25:34;18.50;82.30
77613;DHT22;66777;52.282;5.960;2023-07-29T06:28:00;18.50;82.10
77613;DHT22;66777;52.282;5.960;2023-07-29T06:30:25;18.50;82.10
77613;DHT22;66777;52.282;5.960;2023-07-29T06:32:51;18.60;82.10
77613;DHT22;66777;52.282;5.960;2023-07-29T06:35:17;18.60;81.90
77613;DHT22;66777;52.282;5.960;2023-07-29T06:37:42;18.60;81.90
77613;DHT22;66777;52.282;5.960;2023-07-29T06:40:08;18.60;81.90
77613;DHT22;66777;52.282;5.960;2023-07-29T06:42:34;18.70;81.80
77613;DHT22;66777;52.282;5.960;2023-07-29T06:44:59;18.70;81.70
77613;DHT22;66777;52.282;5.960;2023-07-29T06:47:25;18.80;81.70
77613;DHT22;66777;52.282;5.960;2023-07-29T06:49:50;18.80;81.60
77613;DHT22;66777;52.282;5.960;2023-07-29T06:52:16;18.80;81.50
77613;DHT22;66777;52.282;5.960;2023-07-29T06:54:42;18.90;81.50
77613;DHT22;66777;52.282;5.960;2023-07-29T06:57:07;19.00;81.40
77613;DHT22;66777;52.282;5.960;2023-07-29T06:59:33;19.00;81.30
77613;DHT22;66777;52.282;5.960;2023-07-29T07:01:59;19.00;81.20
77613;DHT22;66777;52.282;5.960;2023-07-29T07:04:25;19.10;81.20
77613;DHT22;66777;52.282;5.960;2023-07-29T07:06:51;19.10;81.10
77613;DHT22;66777;52.282;5.960;2023-07-29T07:09:16;19.20;81.00
77613;DHT22;66777;52.282;5.960;2023-07-29T07:11:42;19.20;80.90
77613;DHT22;66777;52.282;5.960;2023-07-29T07:14:07;19.30;80.70
77613;DHT22;66777;52.282;5.960;2023-07-29T07:16:33;19.40;80.60
77613;DHT22;66777;52.282;5.960;2023-07-29T07:19:02;19.50;80.50
77613;DHT22;66777;52.282;5.960;2023-07-29T07:21:27;19.50;80.40
77613;DHT22;66777;52.282;5.960;2023-07-29T07:23:53;19.50;80.40
77613;DHT22;66777;52.282;5.960;2023-07-29T07:26:18;19.60;80.40
77613;DHT22;66777;52.282;5.960;2023-07-29T07:28:44;19.70;80.10
77613;DHT22;66777;52.282;5.960;2023-07-29T07:31:10;19.70;80.00
77613;DHT22;66777;52.282;5.960;2023-07-29T07:33:35;19.70;80.10
77613;DHT22;66777;52.282;5.960;2023-07-29T07:36:01;19.70;80.00
77613;DHT22;66777;52.282;5.960;2023-07-29T07:38:26;19.80;80.00
77613;DHT22;66777;52.282;5.960;2023-07-29T07:40:56;19.70;80.00
77613;DHT22;66777;52.282;5.960;2023-07-29T07:43:22;19.70;79.80
77613;DHT22;66777;52.282;5.960;2023-07-29T07:45:48;19.70;79.80
77613;DHT22;66777;52.282;5.960;2023-07-29T07:48:14;19.70;79.70
77613;DHT22;66777;52.282;5.960;2023-07-29T07:50:42;19.70;79.60
77613;DHT22;66777;52.282;5.960;2023-07-29T07:53:07;19.80;79.70
77613;DHT22;66777;52.282;5.960;2023-07-29T07:55:33;19.80;79.60
77613;DHT22;66777;52.282;5.960;2023-07-29T07:57:59;19.90;79.60
77613;DHT22;66777;52.282;5.960;2023-07-29T08:00:24;19.90;79.60
77613;DHT22;66777;52.282;5.960;2023-07-29T08:02:50;19.80;79.60
77613;DHT22;66777;52.282;5.960;2023-07-29T08:05:15;19.80;79.70
77613;DHT22;66777;52.282;5.960;2023-07-29T08:07:41;19.70;79.70
77613;DHT22;66777;52.282;5.960;2023-07-29T08:10:07;19.70;79.60
77613;DHT22;66777;52.282;5.960;2023-07-29T08:12:32;19.70;79.70
77613;DHT22;66777;52.282;5.960;2023-07-29T08:14:58;19.70;79.70
77613;DHT22;66777;52.282;5.960;2023-07-29T08:17:24;19.70;79.60
77613;DHT22;66777;52.282;5.960;2023-07-29T08:19:49;19.70;79.50
77613;DHT22;66777;52.282;5.960;2023-07-29T08:22:15;19.80;79.50
77613;DHT22;66777;52.282;5.960;2023-07-29T08:24:42;19.90;79.50
77613;DHT22;66777;52.282;5.960;2023-07-29T08:27:08;19.90;79.50
77613;DHT22;66777;52.282;5.960;2023-07-29T08:29:34;20.00;79.40
77613;DHT22;66777;52.282;5.960;2023-07-29T08:31:59;20.00;79.40
77613;DHT22;66777;52.282;5.960;2023-07-29T08:34:25;20.00;79.30
77613;DHT22;66777;52.282;5.960;2023-07-29T08:36:50;20.00;79.10
77613;DHT22;66777;52.282;5.960;2023-07-29T08:39:16;20.00;79.00
77613;DHT22;66777;52.282;5.960;2023-07-29T08:41:59;19.90;79.10
77613;DHT22;66777;52.282;5.960;2023-07-29T08:44:27;19.90;79.10
77613;DHT22;66777;52.282;5.960;2023-07-29T08:46:56;19.90;79.20
77613;DHT22;66777;52.282;5.960;2023-07-29T08:49:28;19.90;79.30
77613;DHT22;66777;52.282;5.960;2023-07-29T08:51:57;19.80;79.40
77613;DHT22;66777;52.282;5.960;2023-07-29T08:54:23;19.80;79.40
77613;DHT22;66777;52.282;5.960;2023-07-29T08:56:49;19.80;79.50
77613;DHT22;66777;52.282;5.960;2023-07-29T08:59:15;19.90;79.60
77613;DHT22;66777;52.282;5.960;2023-07-29T09:01:43;19.90;79.60
77613;DHT22;66777;52.282;5.960;2023-07-29T09:04:09;19.90;79.60
77613;DHT22;66777;52.282;5.960;2023-07-29T09:06:36;20.00;79.50
77613;DHT22;66777;52.282;5.960;2023-07-29T09:09:03;20.00;79.50
77613;DHT22;66777;52.282;5.960;2023-07-29T09:11:30;20.00;79.30
77613;DHT22;66777;52.282;5.960;2023-07-29T09:13:56;20.00;79.30
77613;DHT22;66777;52.282;5.960;2023-07-29T09:16:22;20.00;79.30
77613;DHT22;66777;52.282;5.960;2023-07-29T09:18:51;20.10;79.30
77613;DHT22;66777;52.282;5.960;2023-07-29T09:21:18;20.10;79.10
77613;DHT22;66777;52.282;5.960;2023-07-29T09:23:48;20.30;79.00
77613;DHT22;66777;52.282;5.960;2023-07-29T09:26:26;20.30;78.80
77613;DHT22;66777;52.282;5.960;2023-07-29T09:28:54;20.30;78.70
77613;DHT22;66777;52.282;5.960;2023-07-29T09:31:25;20.30;78.70
77613;DHT22;66777;52.282;5.960;2023-07-29T09:33:57;20.30;78.80
77613;DHT22;66777;52.282;5.960;2023-07-29T09:36:23;20.30;78.90
77613;DHT22;66777;52.282;5.960;2023-07-29T09:38:54;20.20;79.00
77613;DHT22;66777;52.282;5.960;2023-07-29T09:41:23;20.20;79.00
77613;DHT22;66777;52.282;5.960;2023-07-29T09:44:04;20.20;79.00
77613;DHT22;66777;52.282;5.960;2023-07-29T09:46:37;20.10;79.00
77613;DHT22;66777;52.282;5.960;2023-07-29T09:49:04;20.10;79.10
77613;DHT22;66777;52.282;5.960;2023-07-29T09:51:31;20.10;79.20
77613;DHT22;66777;52.282;5.960;2023-07-29T09:53:56;20.20;79.30
77613;DHT22;66777;52.282;5.960;2023-07-29T09:56:26;20.10;79.30
77613;DHT22;66777;52.282;5.960;2023-07-29T09:58:58;20.30;79.30
77613;DHT22;66777;52.282;5.960;2023-07-29T10:01:24;20.30;79.10
77613;DHT22;66777;52.282;5.960;2023-07-29T10:03:50;20.40;78.90
77613;DHT22;66777;52.282;5.960;2023-07-29T10:06:17;20.50;78.50
77613;DHT22;66777;52.282;5.960;2023-07-29T10:08:43;20.50;78.50
77613;DHT22;66777;52.282;5.960;2023-07-29T10:11:10;20.50;78.30
77613;DHT22;66777;52.282;5.960;2023-07-29T10:13:37;20.40;78.20
77613;DHT22;66777;52.282;5.960;2023-07-29T10:16:04;20.40;78.30
77613;DHT22;66777;52.282;5.960;2023-07-29T10:18:31;20.50;78.20
77613;DHT22;66777;52.282;5.960;2023-07-29T10:20:58;20.50;78.10
77613;DHT22;66777;52.282;5.960;2023-07-29T10:23:28;20.70;78.00
77613;DHT22;66777;52.282;5.960;2023-07-29T10:26:16;20.90;77.70
77613;DHT22;66777;52.282;5.960;2023-07-29T10:28:47;21.00;77.30
77613;DHT22;66777;52.282;5.960;2023-07-29T10:31:15;21.00;77.10
77613;DHT22;66777;52.282;5.960;2023-07-29T10:33:43;20.90;76.90
77613;DHT22;66777;52.282;5.960;2023-07-29T10:36:09;20.90;76.90
77613;DHT22;66777;52.282;5.960;2023-07-29T10:38:35;20.80;76.80
77613;DHT22;66777;52.282;5.960;2023-07-29T10:41:01;20.80;76.80
77613;DHT22;66777;52.282;5.960;2023-07-29T10:46:15;20.70;77.00
77613;DHT22;66777;52.282;5.960;2023-07-29T10:48:55;20.70;77.20
77613;DHT22;66777;52.282;5.960;2023-07-29T10:51:37;20.70;77.20
77613;DHT22;66777;52.282;5.960;2023-07-29T10:56:34;20.70;77.20
77613;DHT22;66777;52.282;5.960;2023-07-29T11:01:41;20.60;77.70
77613;DHT22;66777;52.282;5.960;2023-07-29T11:12:36;20.60;78.70
77613;DHT22;66777;52.282;5.960;2023-07-29T11:15:13;20.70;78.80
77613;DHT22;66777;52.282;5.960;2023-07-29T11:17:54;20.70;78.30
77613;DHT22;66777;52.282;5.960;2023-07-29T11:20:25;20.70;78.20
77613;DHT22;66777;52.282;5.960;2023-07-29T11:22:52;20.70;77.90
77613;DHT22;66777;52.282;5.960;2023-07-29T11:25:18;20.60;77.80
77613;DHT22;66777;52.282;5.960;2023-07-29T11:27:45;20.60;77.90
77613;DHT22;66777;52.282;5.960;2023-07-29T11:30:12;20.50;77.80
77613;DHT22;66777;52.282;5.960;2023-07-29T11:32:39;20.50;77.90
77613;DHT22;66777;52.282;5.960;2023-07-29T11:35:07;20.50;77.90
77613;DHT22;66777;52.282;5.960;2023-07-29T11:37:35;20.50;77.90
77613;DHT22;66777;52.282;5.960;2023-07-29T11:40:01;20.60;77.90
77613;DHT22;66777;52.282;5.960;2023-07-29T11:42:28;20.60;77.80
77613;DHT22;66777;52.282;5.960;2023-07-29T11:44:56;20.60;77.80
77613;DHT22;66777;52.282;5.960;2023-07-29T11:47:24;20.70;77.70
77613;DHT22;66777;52.282;5.960;2023-07-29T11:49:51;20.80;77.70
77613;DHT22;66777;52.282;5.960;2023-07-29T11:52:17;20.80;77.70
77613;DHT22;66777;52.282;5.960;2023-07-29T11:54:46;21.00;77.80
77613;DHT22;66777;52.282;5.960;2023-07-29T11:57:12;21.10;77.90
77613;DHT22;66777;52.282;5.960;2023-07-29T11:59:39;21.10;77.90
77613;DHT22;66777;52.282;5.960;2023-07-29T12:02:08;21.10;78.00
77613;DHT22;66777;52.282;5.960;2023-07-29T12:04:35;21.10;77.90
77613;DHT22;66777;52.282;5.960;2023-07-29T12:07:01;21.10;77.80
77613;DHT22;66777;52.282;5.960;2023-07-29T12:09:27;21.10;77.70
77613;DHT22;66777;52.282;5.960;2023-07-29T12:11:54;21.00;77.60
77613;DHT22;66777;52.282;5.960;2023-07-29T12:14:20;21.00;77.80
77613;DHT22;66777;52.282;5.960;2023-07-29T12:16:48;20.90;78.00
77613;DHT22;66777;52.282;5.960;2023-07-29T12:19:15;20.80;78.30
77613;DHT22;66777;52.282;5.960;2023-07-29T12:21:44;20.80;78.70
77613;DHT22;66777;52.282;5.960;2023-07-29T12:24:11;20.70;79.00
77613;DHT22;66777;52.282;5.960;2023-07-29T12:26:37;20.60;79.00
77613;DHT22;66777;52.282;5.960;2023-07-29T12:29:18;20.50;79.10
77613;DHT22;66777;52.282;5.960;2023-07-29T12:31:46;20.40;79.40
77613;DHT22;66777;52.282;5.960;2023-07-29T12:34:19;20.30;79.70
77613;DHT22;66777;52.282;5.960;2023-07-29T12:36:49;20.30;80.00
77613;DHT22;66777;52.282;5.960;2023-07-29T12:39:18;20.30;80.30
77613;DHT22;66777;52.282;5.960;2023-07-29T12:41:45;20.50;80.40
77613;DHT22;66777;52.282;5.960;2023-07-29T12:44:10;20.50;80.30
77613;DHT22;66777;52.282;5.960;2023-07-29T12:46:36;20.70;80.20
77613;DHT22;66777;52.282;5.960;2023-07-29T12:49:02;20.90;80.00
77613;DHT22;66777;52.282;5.960;2023-07-29T12:51:27;21.10;79.80
77613;DHT22;66777;52.282;5.960;2023-07-29T12:53:57;21.10;79.40
77613;DHT22;66777;52.282;5.960;2023-07-29T12:56:23;21.40;79.10
77613;DHT22;66777;52.282;5.960;2023-07-29T12:58:48;21.50;79.00
77613;DHT22;66777;52.282;5.960;2023-07-29T13:01:15;21.70;78.40
77613;DHT22;66777;52.282;5.960;2023-07-29T13:03:44;21.90;77.20
77613;DHT22;66777;52.282;5.960;2023-07-29T13:06:09;22.10;76.50
77613;DHT22;66777;52.282;5.960;2023-07-29T13:08:35;22.20;76.00
77613;DHT22;66777;52.282;5.960;2023-07-29T13:11:01;22.30;74.60
77613;DHT22;66777;52.282;5.960;2023-07-29T13:13:26;22.30;73.90
77613;DHT22;66777;52.282;5.960;2023-07-29T13:15:52;22.30;73.80
77613;DHT22;66777;52.282;5.960;2023-07-29T13:18:18;22.50;73.80
77613;DHT22;66777;52.282;5.960;2023-07-29T13:20:44;22.50;73.80
77613;DHT22;66777;52.282;5.960;2023-07-29T13:23:09;22.40;73.30
77613;DHT22;66777;52.282;5.960;2023-07-29T13:25:35;22.30;73.20
77613;DHT22;66777;52.282;5.960;2023-07-29T13:28:00;22.30;73.20
77613;DHT22;66777;52.282;5.960;2023-07-29T13:30:26;22.30;73.40
77613;DHT22;66777;52.282;5.960;2023-07-29T13:32:52;22.20;73.60
77613;DHT22;66777;52.282;5.960;2023-07-29T13:35:17;22.20;73.40
77613;DHT22;66777;52.282;5.960;2023-07-29T13:37:43;22.30;73.30
77613;DHT22;66777;52.282;5.960;2023-07-29T13:40:09;22.50;73.30
77613;DHT22;66777;52.282;5.960;2023-07-29T13:42:34;22.60;73.00
77613;DHT22;66777;52.282;5.960;2023-07-29T13:45:01;22.70;72.50
77613;DHT22;66777;52.282;5.960;2023-07-29T13:47:26;22.90;72.10
77613;DHT22;66777;52.282;5.960;2023-07-29T13:49:52;23.00;71.40
77613;DHT22;66777;52.282;5.960;2023-07-29T13:52:18;23.10;70.80
77613;DHT22;66777;52.282;5.960;2023-07-29T13:54:43;23.10;70.00
77613;DHT22;66777;52.282;5.960;2023-07-29T13:57:09;23.20;69.60
77613;DHT22;66777;52.282;5.960;2023-07-29T13:59:36;23.20;69.40
77613;DHT22;66777;52.282;5.960;2023-07-29T14:02:04;23.30;69.10
77613;DHT22;66777;52.282;5.960;2023-07-29T14:04:31;23.20;69.30
77613;DHT22;66777;52.282;5.960;2023-07-29T14:06:57;23.20;69.80
77613;DHT22;66777;52.282;5.960;2023-07-29T14:09:23;23.30;69.80
77613;DHT22;66777;52.282;5.960;2023-07-29T14:11:48;23.50;69.70
77613;DHT22;66777;52.282;5.960;2023-07-29T14:14:15;23.60;69.30
77613;DHT22;66777;52.282;5.960;2023-07-29T14:16:40;23.60;69.00
77613;DHT22;66777;52.282;5.960;2023-07-29T14:19:06;23.80;68.50
77613;DHT22;66777;52.282;5.960;2023-07-29T14:21:32;23.80;68.50
77613;DHT22;66777;52.282;5.960;2023-07-29T14:23:57;23.80;68.40
77613;DHT22;66777;52.282;5.960;2023-07-29T14:26:23;23.70;68.70
77613;DHT22;66777;52.282;5.960;2023-07-29T14:28:49;23.60;68.80
77613;DHT22;66777;52.282;5.960;2023-07-29T14:31:15;23.50;69.30
77613;DHT22;66777;52.282;5.960;2023-07-29T14:33:43;23.50;69.00
77613;DHT22;66777;52.282;5.960;2023-07-29T14:36:08;23.40;69.10
77613;DHT22;66777;52.282;5.960;2023-07-29T14:38:35;23.30;69.30
77613;DHT22;66777;52.282;5.960;2023-07-29T14:41:01;23.50;69.50
77613;DHT22;66777;52.282;5.960;2023-07-29T14:43:26;23.60;69.40
77613;DHT22;66777;52.282;5.960;2023-07-29T14:45:52;23.60;69.30
77613;DHT22;66777;52.282;5.960;2023-07-29T14:48:18;23.90;69.20
77613;DHT22;66777;52.282;5.960;2023-07-29T14:50:43;24.00;68.90
77613;DHT22;66777;52.282;5.960;2023-07-29T14:53:12;24.10;68.80
77613;DHT22;66777;52.282;5.960;2023-07-29T14:55:38;24.20;68.80
77613;DHT22;66777;52.282;5.960;2023-07-29T14:58:03;24.00;69.00
77613;DHT22;66777;52.282;5.960;2023-07-29T15:00:29;24.00;69.20
77613;DHT22;66777;52.282;5.960;2023-07-29T15:02:55;24.10;69.00
77613;DHT22;66777;52.282;5.960;2023-07-29T15:05:20;24.10;68.80
77613;DHT22;66777;52.282;5.960;2023-07-29T15:07:47;23.90;69.00
77613;DHT22;66777;52.282;5.960;2023-07-29T15:10:16;23.80;69.50
77613;DHT22;66777;52.282;5.960;2023-07-29T15:12:42;23.60;69.50
77613;DHT22;66777;52.282;5.960;2023-07-29T15:15:10;23.40;69.70
77613;DHT22;66777;52.282;5.960;2023-07-29T15:17:35;23.20;69.40
77613;DHT22;66777;52.282;5.960;2023-07-29T15:20:02;23.10;69.50
77613;DHT22;66777;52.282;5.960;2023-07-29T15:22:29;23.00;69.40
77613;DHT22;66777;52.282;5.960;2023-07-29T15:24:55;23.00;69.10
77613;DHT22;66777;52.282;5.960;2023-07-29T15:27:21;23.10;68.50
77613;DHT22;66777;52.282;5.960;2023-07-29T15:29:47;23.10;68.40
77613;DHT22;66777;52.282;5.960;2023-07-29T15:32:13;23.20;68.40
77613;DHT22;66777;52.282;5.960;2023-07-29T15:34:38;23.50;68.20
77613;DHT22;66777;52.282;5.960;2023-07-29T15:37:04;23.60;67.40
77613;DHT22;66777;52.282;5.960;2023-07-29T15:39:30;23.70;67.00
77613;DHT22;66777;52.282;5.960;2023-07-29T15:41:56;23.70;66.70
77613;DHT22;66777;52.282;5.960;2023-07-29T15:44:22;23.50;66.90
77613;DHT22;66777;52.282;5.960;2023-07-29T15:46:47;23.30;67.40
77613;DHT22;66777;52.282;5.960;2023-07-29T15:49:13;23.20;67.30
77613;DHT22;66777;52.282;5.960;2023-07-29T15:51:39;23.00;67.50